Time;durP1;ratioP1;P1;durP2;ratioP2;P2;SDS_P1;SDS_P2;PMS_P1;PMS_P2;Temp;Humidity;BMP_temperature;BMP_pressure;BME280_temperature;BME280_humidity;BME280_pressure;Samples;Min_cycle;Max_cycle;Signal;HPM_P1;HPM_P2
2023/03/01 00:01:46;;;;;;;0.30;0.30;;;7.20;94.50;;;;;;5046005;28;20214;-73
2023/03/01 00:04:12;;;;;;;0.33;0.33;;;7.10;94.40;;;;;;5048761;28;20187;-73
2023/03/01 00:06:37;;;;;;;0.83;0.30;;;7.10;94.60;;;;;;5052136;28;20289;-73
2023/03/01 00:09:04;;;;;;;0.30;0.30;;;7.10;94.50;;;;;;5049179;28;20281;-73
2023/03/01 00:11:31;;;;;;;1.03;0.43;;;7.20;94.50;;;;;;5052308;28;20253;-73
2023/03/01 00:14:00;;;;;;;1.20;0.40;;;7.20;94.40;;;;;;5051758;28;20184;-73
2023/03/01 00:16:33;;;;;;;0.30;0.30;;;7.10;94.50;;;;;;5048197;28;20184;-73
2023/03/01 00:18:59;;;;;;;0.40;0.33;;;7.10;94.60;;;;;;5051426;28;20193;-71
2023/03/01 00:21:26;;;;;;;0.60;0.60;;;7.20;94.40;;;;;;5046214;28;20179;-71
2023/03/01 00:23:52;;;;;;;0.50;0.30;;;7.10;94.40;;;;;;5055626;28;20272;-73
2023/03/01 00:26:19;;;;;;;0.30;0.30;;;6.90;94.70;;;;;;5052428;28;20283;-72
2023/03/01 00:28:46;;;;;;;0.63;0.40;;;6.80;95.40;;;;;;5052180;28;20245;-72
2023/03/01 00:31:14;;;;;;;0.27;0.27;;;6.80;95.40;;;;;;5050388;28;20180;-73
2023/03/01 00:33:40;;;;;;;0.43;0.43;;;6.80;95.20;;;;;;5048241;28;20539;-72
2023/03/01 00:36:07;;;;;;;0.30;0.30;;;6.80;95.20;;;;;;5051664;28;20230;-71
2023/03/01 00:38:39;;;;;;;0.30;0.30;;;6.80;95.10;;;;;;5049786;28;20216;-73
2023/03/01 00:41:13;;;;;;;0.60;0.23;;;6.80;95.10;;;;;;5047015;28;20233;-72
2023/03/01 00:43:39;;;;;;;0.40;0.40;;;6.80;95.10;;;;;;5043321;28;20176;-72
2023/03/01 00:46:09;;;;;;;0.30;0.30;;;6.80;95.00;;;;;;5050284;28;20244;-73
2023/03/01 00:48:35;;;;;;;0.30;0.30;;;6.80;95.10;;;;;;5048124;28;20188;-73
2023/03/01 00:51:28;;;;;;;0.30;0.30;;;6.80;95.00;;;;;;5052880;28;20184;-73
2023/03/01 00:53:59;;;;;;;0.30;0.30;;;6.80;94.80;;;;;;5044272;28;20203;-72
2023/03/01 00:56:25;;;;;;;0.30;0.30;;;6.80;94.80;;;;;;5057188;28;20217;-73
2023/03/01 00:58:51;;;;;;;0.33;0.33;;;6.80;94.70;;;;;;5045345;28;20183;-73
2023/03/01 01:01:20;;;;;;;0.30;0.30;;;6.80;94.70;;;;;;5053941;28;20194;-72
2023/03/01 01:03:52;;;;;;;0.23;0.23;;;6.80;94.80;;;;;;5048411;28;20188;-72
2023/03/01 01:06:21;;;;;;;0.13;0.13;;;6.80;94.60;;;;;;5045641;28;20665;-73
2023/03/01 01:08:48;;;;;;;0.20;0.20;;;6.80;94.70;;;;;;5050439;28;20203;-73
2023/03/01 01:11:14;;;;;;;0.20;0.20;;;6.70;94.60;;;;;;5050188;28;20655;-72
2023/03/01 01:13:41;;;;;;;0.30;0.30;;;6.70;94.70;;;;;;5050453;28;20203;-73
2023/03/01 01:16:07;;;;;;;0.20;0.20;;;6.70;94.80;;;;;;5045138;28;20207;-72
2023/03/01 01:18:33;;;;;;;0.20;0.20;;;6.70;94.90;;;;;;5046516;28;20669;-72
2023/03/01 01:21:08;;;;;;;0.30;0.30;;;6.70;94.70;;;;;;5048692;28;20291;-72
2023/03/01 01:23:33;;;;;;;0.13;0.13;;;6.70;94.50;;;;;;5052012;28;20182;-72
2023/03/01 01:26:07;;;;;;;0.20;0.20;;;6.60;94.80;;;;;;5048072;28;20249;-73
2023/03/01 01:28:33;;;;;;;0.20;0.20;;;6.70;94.70;;;;;;5049995;28;20186;-71
2023/03/01 01:30:59;;;;;;;0.20;0.20;;;6.70;94.60;;;;;;5042751;28;20847;-72
2023/03/01 01:33:24;;;;;;;0.30;0.30;;;6.60;94.70;;;;;;5045948;28;20187;-72
2023/03/01 01:35:50;;;;;;;0.10;0.10;;;6.60;94.70;;;;;;5047635;28;20738;-72
2023/03/01 01:38:16;;;;;;;0.20;0.20;;;6.60;94.70;;;;;;5046919;28;21323;-73
2023/03/01 01:40:46;;;;;;;0.10;0.10;;;6.50;94.70;;;;;;5049744;28;20179;-72
2023/03/01 01:43:40;;;;;;;0.20;0.20;;;6.50;94.80;;;;;;5047087;28;20199;-71
2023/03/01 01:46:33;;;;;;;0.30;0.30;;;6.40;94.80;;;;;;5047234;28;20187;-72
2023/03/01 01:49:01;;;;;;;0.17;0.17;;;6.40;94.60;;;;;;5000686;28;20816;-72
2023/03/01 01:51:38;;;;;;;0.20;0.20;;;6.40;94.80;;;;;;4998873;28;22038;-72
2023/03/01 01:54:16;;;;;;;0.20;0.20;;;6.40;94.70;;;;;;5000066;28;20200;-71
2023/03/01 01:56:46;;;;;;;0.20;0.20;;;6.50;94.60;;;;;;4999549;28;20185;-72
2023/03/01 01:59:12;;;;;;;0.20;0.20;;;6.50;94.50;;;;;;4982282;28;20276;-72
2023/03/01 02:01:38;;;;;;;0.10;0.10;;;6.50;94.50;;;;;;4999861;28;20219;-71
2023/03/01 02:04:06;;;;;;;0.10;0.10;;;6.50;94.60;;;;;;5001807;28;20212;-71
2023/03/01 02:06:36;;;;;;;0.10;0.10;;;6.50;94.50;;;;;;4984702;28;20192;-71
2023/03/01 02:09:08;;;;;;;0.10;0.10;;;6.60;94.30;;;;;;4999579;28;20181;-72
2023/03/01 02:11:33;;;;;;;0.20;0.20;;;6.60;94.00;;;;;;5000154;28;20192;-72
2023/03/01 02:13:59;;;;;;;0.17;0.17;;;6.60;94.00;;;;;;5001280;28;20602;-72
2023/03/01 02:16:26;;;;;;;0.20;0.20;;;6.60;94.10;;;;;;4999003;28;20189;-72
2023/03/01 02:18:53;;;;;;;0.10;0.10;;;6.60;93.70;;;;;;5000837;28;20296;-71
2023/03/01 02:21:31;;;;;;;0.10;0.10;;;6.60;93.60;;;;;;5000362;28;20189;-71
2023/03/01 02:24:01;;;;;;;0.20;0.20;;;6.60;93.30;;;;;;5000785;28;20189;-71
2023/03/01 02:26:40;;;;;;;0.10;0.10;;;6.60;93.30;;;;;;5029406;28;20986;-71
2023/03/01 02:29:06;;;;;;;0.20;0.20;;;6.60;93.20;;;;;;5046507;28;20264;-72
2023/03/01 02:31:41;;;;;;;0.20;0.20;;;6.60;93.20;;;;;;5054646;28;20175;-72
2023/03/01 02:34:10;;;;;;;0.40;0.20;;;6.60;93.20;;;;;;5050265;28;20179;-72
2023/03/01 02:36:46;;;;;;;0.20;0.20;;;6.60;93.10;;;;;;5043546;28;20179;-72
2023/03/01 02:39:19;;;;;;;0.27;0.27;;;6.50;93.20;;;;;;5049557;28;20654;-71
2023/03/01 02:41:51;;;;;;;0.77;0.30;;;6.50;93.30;;;;;;5044538;28;20202;-72
2023/03/01 02:44:17;;;;;;;0.20;0.20;;;6.50;93.30;;;;;;5044154;28;20589;-71
2023/03/01 02:46:48;;;;;;;0.37;0.17;;;6.50;93.50;;;;;;5049071;28;20290;-71
2023/03/01 02:49:28;;;;;;;0.10;0.10;;;6.40;93.70;;;;;;5052310;28;20196;-72
2023/03/01 02:52:22;;;;;;;0.30;0.30;;;6.40;93.70;;;;;;5046469;28;20188;-72
2023/03/01 02:55:10;;;;;;;0.10;0.10;;;6.30;94.20;;;;;;5045587;28;20183;-71
2023/03/01 02:57:39;;;;;;;0.17;0.17;;;6.30;94.30;;;;;;5047607;28;20712;-72
2023/03/01 03:00:19;;;;;;;0.20;0.20;;;6.30;94.50;;;;;;5045168;28;20194;-69
2023/03/01 03:02:46;;;;;;;0.20;0.20;;;6.40;94.40;;;;;;5048073;28;20581;-72
2023/03/01 03:05:15;;;;;;;0.20;0.20;;;6.40;94.60;;;;;;5048229;28;20269;-72
2023/03/01 03:07:45;;;;;;;0.20;0.20;;;6.40;94.40;;;;;;5048384;28;20219;-72
2023/03/01 03:10:19;;;;;;;0.27;0.27;;;6.50;94.30;;;;;;5049735;28;20260;-72
2023/03/01 03:12:53;;;;;;;0.37;0.20;;;6.40;94.30;;;;;;5045023;28;20219;-72
2023/03/01 03:15:20;;;;;;;0.23;0.23;;;6.40;94.40;;;;;;5049162;28;20279;-72
2023/03/01 03:17:46;;;;;;;0.20;0.20;;;6.30;94.80;;;;;;5047717;28;20203;-72
2023/03/01 03:20:18;;;;;;;0.20;0.20;;;6.20;95.20;;;;;;5047010;28;20621;-72
2023/03/01 03:22:45;;;;;;;0.20;0.20;;;6.20;95.10;;;;;;5042014;28;20183;-72
2023/03/01 03:25:10;;;;;;;0.30;0.30;;;6.30;94.90;;;;;;5048416;28;20192;-72
2023/03/01 03:27:41;;;;;;;0.40;0.30;;;6.20;95.00;;;;;;5050745;28;20277;-72
2023/03/01 03:30:09;;;;;;;0.20;0.20;;;6.30;94.70;;;;;;5045379;28;20192;-71
2023/03/01 03:32:39;;;;;;;0.50;0.40;;;6.30;94.80;;;;;;5052869;28;20194;-72
2023/03/01 03:35:09;;;;;;;0.27;0.23;;;6.30;94.90;;;;;;5050736;28;20191;-72
2023/03/01 03:40:27;;;;;;;0.30;0.30;;;6.40;94.50;;;;;;5052591;28;20705;-72
2023/03/01 03:42:53;;;;;;;0.20;0.20;;;6.40;94.50;;;;;;5054646;28;20285;-72
2023/03/01 03:45:18;;;;;;;0.13;0.13;;;6.50;94.40;;;;;;5052881;28;20293;-72
2023/03/01 03:50:29;;;;;;;0.23;0.23;;;6.40;94.00;;;;;;5050628;28;20210;-72
2023/03/01 03:52:54;;;;;;;0.30;0.30;;;6.40;94.20;;;;;;5050463;28;20197;-72
2023/03/01 03:55:20;;;;;;;0.40;0.40;;;6.40;94.00;;;;;;5049695;28;20214;-71
2023/03/01 03:57:51;;;;;;;0.30;0.30;;;6.30;94.20;;;;;;5048088;28;20208;-72
2023/03/01 04:00:19;;;;;;;0.40;0.30;;;6.30;94.20;;;;;;5044647;28;20717;-72
2023/03/01 04:02:47;;;;;;;0.20;0.20;;;6.20;94.40;;;;;;5049326;28;20175;-72
2023/03/01 04:05:15;;;;;;;0.20;0.20;;;6.20;94.70;;;;;;5046202;28;20818;-72
2023/03/01 04:07:42;;;;;;;0.30;0.30;;;6.20;94.50;;;;;;5047727;28;20246;-72
2023/03/01 04:10:11;;;;;;;0.40;0.40;;;6.30;94.60;;;;;;5047753;28;20554;-72
2023/03/01 04:12:36;;;;;;;0.40;0.40;;;6.30;94.60;;;;;;5050734;28;20183;-72
2023/03/01 04:15:12;;;;;;;0.20;0.20;;;6.30;94.60;;;;;;5049600;28;20574;-72
2023/03/01 04:17:47;;;;;;;0.20;0.20;;;6.30;94.50;;;;;;5048921;28;20212;-72
2023/03/01 04:20:20;;;;;;;0.53;0.30;;;6.30;94.50;;;;;;5047401;28;20183;-73
2023/03/01 04:22:47;;;;;;;0.10;0.10;;;6.30;94.50;;;;;;5048513;28;20254;-72
2023/03/01 04:25:14;;;;;;;0.33;0.30;;;6.30;94.50;;;;;;5051582;28;20685;-74
2023/03/01 04:27:40;;;;;;;0.30;0.30;;;6.30;94.30;;;;;;5054421;28;20510;-72
2023/03/01 04:30:07;;;;;;;0.27;0.27;;;6.30;93.90;;;;;;5043741;28;20237;-72
2023/03/01 04:32:33;;;;;;;0.20;0.20;;;6.40;94.30;;;;;;5051128;28;20180;-71
2023/03/01 04:35:00;;;;;;;0.20;0.20;;;6.40;94.30;;;;;;5047151;28;20232;-73
2023/03/01 04:37:26;;;;;;;0.30;0.30;;;6.30;94.40;;;;;;5051239;28;20203;-73
2023/03/01 04:39:51;;;;;;;3.97;0.27;;;6.30;94.40;;;;;;5051575;28;20193;-73
2023/03/01 04:42:17;;;;;;;0.40;0.40;;;6.30;94.40;;;;;;5051969;28;20180;-73
2023/03/01 04:44:44;;;;;;;0.30;0.30;;;6.30;94.50;;;;;;5050482;28;20187;-73
2023/03/01 04:47:10;;;;;;;0.30;0.30;;;6.30;94.50;;;;;;5049177;28;20676;-72
2023/03/01 04:49:36;;;;;;;0.17;0.17;;;6.30;94.60;;;;;;5046194;28;20266;-72
2023/03/01 04:52:03;;;;;;;0.20;0.20;;;6.30;94.70;;;;;;5050044;28;20576;-73
2023/03/01 04:54:32;;;;;;;0.20;0.20;;;6.30;94.60;;;;;;5052759;28;20194;-73
2023/03/01 04:56:58;;;;;;;0.70;0.27;;;6.30;94.60;;;;;;5048366;28;20229;-73
2023/03/01 04:59:25;;;;;;;0.10;0.10;;;6.30;94.70;;;;;;5050704;28;20175;-73
2023/03/01 05:01:55;;;;;;;0.40;0.40;;;6.30;94.60;;;;;;5052558;28;21243;-71
2023/03/01 05:04:22;;;;;;;0.20;0.20;;;6.40;94.50;;;;;;5041770;28;20190;-72
2023/03/01 05:06:48;;;;;;;0.20;0.20;;;6.40;94.40;;;;;;5048378;28;20667;-73
2023/03/01 05:09:14;;;;;;;0.20;0.20;;;6.40;94.40;;;;;;5053661;28;20193;-73
2023/03/01 05:11:39;;;;;;;0.30;0.30;;;6.30;94.40;;;;;;5047622;28;20194;-72
2023/03/01 05:14:06;;;;;;;0.23;0.23;;;6.30;94.40;;;;;;5051466;28;20262;-73
2023/03/01 05:16:33;;;;;;;0.23;0.23;;;6.20;94.70;;;;;;5045203;28;21000;-75
2023/03/01 05:18:59;;;;;;;0.20;0.20;;;6.10;94.90;;;;;;5050091;28;20720;-73
2023/03/01 05:21:25;;;;;;;0.67;0.20;;;6.20;94.90;;;;;;5047004;28;20179;-72
2023/03/01 05:23:51;;;;;;;0.20;0.20;;;6.10;95.00;;;;;;5052656;28;20635;-72
2023/03/01 05:26:18;;;;;;;0.20;0.20;;;6.20;95.00;;;;;;5052270;28;20727;-73
2023/03/01 05:28:44;;;;;;;0.17;0.17;;;6.20;95.00;;;;;;5046153;28;20183;-73
2023/03/01 05:31:10;;;;;;;0.20;0.20;;;6.20;95.10;;;;;;5046009;28;20191;-72
2023/03/01 05:33:40;;;;;;;0.30;0.30;;;6.20;95.20;;;;;;5049290;28;20195;-73
2023/03/01 05:36:09;;;;;;;0.30;0.30;;;6.20;95.20;;;;;;5047354;28;20179;-72
2023/03/01 05:38:35;;;;;;;0.20;0.20;;;6.20;95.20;;;;;;5046363;28;20265;-72
2023/03/01 05:41:02;;;;;;;0.33;0.33;;;6.20;95.20;;;;;;5047163;28;20543;-73
2023/03/01 05:43:33;;;;;;;0.40;0.40;;;6.20;95.20;;;;;;5047841;28;20235;-73
2023/03/01 05:45:59;;;;;;;0.23;0.23;;;6.20;95.00;;;;;;5047578;28;20291;-73
2023/03/01 05:48:25;;;;;;;0.27;0.27;;;6.20;95.00;;;;;;5054139;28;20175;-75
2023/03/01 05:50:51;;;;;;;0.53;0.20;;;6.30;94.90;;;;;;5059347;28;20243;-78
2023/03/01 05:53:20;;;;;;;0.33;0.33;;;6.30;94.70;;;;;;5053231;28;20321;-74
2023/03/01 05:55:47;;;;;;;0.90;0.30;;;6.30;94.60;;;;;;5062791;28;20275;-73
2023/03/01 05:58:18;;;;;;;0.27;0.27;;;6.40;94.60;;;;;;5051041;28;20211;-73
2023/03/01 06:00:45;;;;;;;0.40;0.40;;;6.40;94.40;;;;;;5043258;28;20680;-73
2023/03/01 06:03:13;;;;;;;0.30;0.30;;;6.40;94.50;;;;;;5045210;28;20184;-72
2023/03/01 06:05:39;;;;;;;0.30;0.30;;;6.50;94.30;;;;;;5045644;28;20184;-72
2023/03/01 06:08:05;;;;;;;0.33;0.33;;;6.50;94.20;;;;;;5052790;28;20227;-72
2023/03/01 06:10:31;;;;;;;0.33;0.33;;;6.50;94.30;;;;;;5048549;28;20214;-72
2023/03/01 06:12:57;;;;;;;0.30;0.30;;;6.60;93.90;;;;;;5050009;28;20230;-72
2023/03/01 06:15:24;;;;;;;0.30;0.30;;;6.60;93.60;;;;;;5050755;28;20183;-72
2023/03/01 06:17:50;;;;;;;0.60;0.60;;;6.60;93.50;;;;;;5051937;28;20215;-72
2023/03/01 06:20:20;;;;;;;0.40;0.40;;;6.60;93.40;;;;;;5054216;28;20190;-73
2023/03/01 06:22:47;;;;;;;0.40;0.40;;;6.70;93.30;;;;;;5050493;28;20179;-72
2023/03/01 06:25:19;;;;;;;2.10;0.60;;;6.70;93.30;;;;;;5044904;28;20759;-72
2023/03/01 06:27:45;;;;;;;0.20;0.20;;;6.70;93.30;;;;;;5045753;28;20204;-72
2023/03/01 06:30:13;;;;;;;0.50;0.50;;;6.70;93.10;;;;;;5043396;28;20186;-73
2023/03/01 06:32:41;;;;;;;0.70;0.60;;;6.70;93.30;;;;;;5051331;28;20191;-72
2023/03/01 06:35:09;;;;;;;0.67;0.40;;;6.70;93.50;;;;;;5050645;28;20179;-72
2023/03/01 06:37:35;;;;;;;0.70;0.50;;;6.70;93.40;;;;;;5050200;28;20876;-72
2023/03/01 06:40:07;;;;;;;0.40;0.40;;;6.70;93.50;;;;;;5048370;28;20190;-73
2023/03/01 06:42:34;;;;;;;0.40;0.40;;;6.80;93.20;;;;;;5050506;28;20206;-72
2023/03/01 06:45:00;;;;;;;1.30;0.50;;;6.80;93.20;;;;;;5054471;28;20171;-72
2023/03/01 06:47:26;;;;;;;0.23;0.23;;;6.90;93.00;;;;;;5049921;28;20190;-72
2023/03/01 06:49:51;;;;;;;0.30;0.30;;;6.90;93.00;;;;;;5050990;28;20566;-72
2023/03/01 06:52:17;;;;;;;2.73;0.50;;;6.90;92.80;;;;;;5052183;28;20183;-72
2023/03/01 06:54:43;;;;;;;0.30;0.30;;;7.00;92.60;;;;;;5047403;28;20172;-72
2023/03/01 06:57:08;;;;;;;0.63;0.40;;;7.00;92.60;;;;;;5046176;28;20219;-71
2023/03/01 06:59:34;;;;;;;2.30;0.40;;;7.00;92.60;;;;;;5046460;28;20186;-71
2023/03/01 07:02:00;;;;;;;0.30;0.30;;;7.00;92.50;;;;;;5048056;28;20210;-72
2023/03/01 07:04:28;;;;;;;0.43;0.43;;;7.10;92.60;;;;;;5050955;28;20215;-72
2023/03/01 07:06:55;;;;;;;0.63;0.63;;;7.10;92.50;;;;;;5053278;28;20653;-72
2023/03/01 07:09:22;;;;;;;0.30;0.30;;;7.10;92.20;;;;;;5049946;28;20225;-72
2023/03/01 07:11:48;;;;;;;0.40;0.40;;;7.10;92.10;;;;;;5050969;28;20186;-71
2023/03/01 07:14:14;;;;;;;0.40;0.40;;;7.10;92.10;;;;;;5051090;28;20668;-72
2023/03/01 07:16:40;;;;;;;0.50;0.50;;;7.20;92.10;;;;;;5049133;28;20183;-71
2023/03/01 07:19:05;;;;;;;0.30;0.30;;;7.20;92.00;;;;;;5055416;28;20203;-71
2023/03/01 07:21:31;;;;;;;1.53;0.50;;;7.30;91.80;;;;;;5049202;28;20635;-71
2023/03/01 07:23:57;;;;;;;4.23;0.50;;;7.30;91.80;;;;;;5048927;28;20184;-72
2023/03/01 07:26:23;;;;;;;0.30;0.30;;;7.40;91.50;;;;;;5052525;28;20182;-72
2023/03/01 07:28:48;;;;;;;0.73;0.33;;;7.50;91.60;;;;;;5049904;28;20192;-72
2023/03/01 07:31:14;;;;;;;0.93;0.50;;;7.50;91.40;;;;;;5052481;28;20273;-72
2023/03/01 07:33:40;;;;;;;0.60;0.60;;;7.60;91.00;;;;;;5052322;28;20626;-72
2023/03/01 07:36:06;;;;;;;0.43;0.43;;;7.70;90.70;;;;;;5050349;28;20176;-72
2023/03/01 07:38:33;;;;;;;0.67;0.43;;;7.80;90.30;;;;;;5055083;28;20211;-72
2023/03/01 07:41:03;;;;;;;0.43;0.43;;;7.90;90.00;;;;;;5052617;28;20184;-72
2023/03/01 07:43:29;;;;;;;0.73;0.50;;;8.00;89.60;;;;;;5053598;28;20553;-72
2023/03/01 07:45:59;;;;;;;0.50;0.50;;;8.00;89.40;;;;;;5050329;28;20175;-72
2023/03/01 07:48:25;;;;;;;0.53;0.53;;;8.20;89.10;;;;;;5053733;28;20199;-72
2023/03/01 07:50:51;;;;;;;0.57;0.57;;;8.20;89.10;;;;;;5052141;28;20187;-72
2023/03/01 07:53:16;;;;;;;0.70;0.70;;;8.30;88.80;;;;;;5052504;28;20266;-72
2023/03/01 07:55:42;;;;;;;0.97;0.37;;;8.40;88.40;;;;;;5052416;28;20211;-72
2023/03/01 07:58:08;;;;;;;2.17;0.40;;;8.50;87.90;;;;;;5055739;28;20214;-72
2023/03/01 08:00:33;;;;;;;0.30;0.30;;;8.50;87.30;;;;;;5054404;28;20196;-72
2023/03/01 08:03:00;;;;;;;0.50;0.50;;;8.50;87.40;;;;;;5050713;28;20589;-73
2023/03/01 08:05:27;;;;;;;0.40;0.40;;;8.60;87.30;;;;;;5052193;28;20185;-72
2023/03/01 08:07:53;;;;;;;1.50;0.50;;;8.60;86.90;;;;;;5054805;28;20194;-72
2023/03/01 08:10:19;;;;;;;0.30;0.30;;;8.60;86.70;;;;;;5047618;28;20367;-72
2023/03/01 08:12:44;;;;;;;0.40;0.40;;;8.60;86.70;;;;;;5045992;28;20284;-71
2023/03/01 08:15:12;;;;;;;0.23;0.23;;;8.50;86.50;;;;;;5048526;28;20209;-71
2023/03/01 08:17:37;;;;;;;0.33;0.33;;;8.50;86.90;;;;;;5055660;28;20219;-70
2023/03/01 08:20:07;;;;;;;0.30;0.30;;;8.50;86.90;;;;;;5053678;28;20574;-71
2023/03/01 08:22:33;;;;;;;0.90;0.23;;;8.60;87.20;;;;;;5051898;28;20263;-71
2023/03/01 08:24:58;;;;;;;0.77;0.40;;;8.70;86.40;;;;;;5052076;28;20279;-71
2023/03/01 08:27:24;;;;;;;0.23;0.23;;;8.70;86.10;;;;;;5052533;28;20249;-72
2023/03/01 08:29:49;;;;;;;0.27;0.27;;;8.70;85.70;;;;;;5048459;28;21073;-72
2023/03/01 08:32:15;;;;;;;0.20;0.20;;;8.70;86.10;;;;;;5051083;28;20183;-72
2023/03/01 08:34:41;;;;;;;0.50;0.50;;;8.70;86.10;;;;;;5048360;28;20763;-73
2023/03/01 08:37:06;;;;;;;0.20;0.20;;;8.70;85.70;;;;;;5047617;28;20597;-72
2023/03/01 08:39:32;;;;;;;0.30;0.30;;;8.70;85.80;;;;;;5048853;28;20184;-73
2023/03/01 08:41:58;;;;;;;1.33;0.30;;;8.50;85.50;;;;;;5052127;28;20180;-72
2023/03/01 08:44:24;;;;;;;0.30;0.30;;;8.50;86.30;;;;;;5047687;28;20190;-72
2023/03/01 08:46:51;;;;;;;0.40;0.40;;;8.40;85.90;;;;;;5044732;28;20189;-72
2023/03/01 08:49:19;;;;;;;0.20;0.20;;;8.60;86.00;;;;;;5040544;28;20175;-74
2023/03/01 08:51:46;;;;;;;0.30;0.30;;;8.70;85.90;;;;;;5053254;28;20205;-74
2023/03/01 08:54:18;;;;;;;0.30;0.30;;;8.60;84.50;;;;;;5045583;28;20192;-75
2023/03/01 08:56:45;;;;;;;0.20;0.20;;;8.70;85.50;;;;;;5044971;28;20230;-75
2023/03/01 08:59:11;;;;;;;0.20;0.20;;;8.80;84.80;;;;;;5050173;28;20191;-75
2023/03/01 09:01:37;;;;;;;2.08;0.25;;;8.90;84.50;;;;;;5047221;28;20564;-75
2023/03/01 09:04:03;;;;;;;0.32;0.22;;;9.10;84.40;;;;;;5047047;28;20187;-74
2023/03/01 09:09:15;;;;;;;0.30;0.30;;;9.40;83.10;;;;;;5046664;28;21190;-74
2023/03/01 09:11:40;;;;;;;0.23;0.23;;;9.80;82.30;;;;;;5063647;28;20572;-74
2023/03/01 09:14:06;;;;;;;0.20;0.20;;;9.80;82.30;;;;;;5041934;28;20183;-73
2023/03/01 09:16:35;;;;;;;0.32;0.32;;;10.00;81.60;;;;;;5045448;28;20206;-73
2023/03/01 09:19:02;;;;;;;0.25;0.25;;;10.10;80.60;;;;;;5038533;28;20184;-74
2023/03/01 09:21:28;;;;;;;0.32;0.32;;;10.20;80.20;;;;;;5042005;28;20180;-74
2023/03/01 09:23:56;;;;;;;0.20;0.20;;;10.30;79.70;;;;;;5046869;28;20236;-74
2023/03/01 09:26:23;;;;;;;0.20;0.20;;;10.10;79.50;;;;;;5040584;28;20180;-73
2023/03/01 09:28:51;;;;;;;0.13;0.13;;;10.10;80.40;;;;;;5045405;28;21082;-73
2023/03/01 09:31:19;;;;;;;0.30;0.30;;;10.20;80.70;;;;;;5041431;28;20679;-72
2023/03/01 09:33:47;;;;;;;0.20;0.20;;;10.40;80.20;;;;;;5037057;28;20527;-72
2023/03/01 09:36:18;;;;;;;0.20;0.20;;;10.40;79.80;;;;;;5045604;28;20575;-72
2023/03/01 09:38:45;;;;;;;0.17;0.17;;;10.60;79.60;;;;;;5040596;28;20183;-73
2023/03/01 09:41:41;;;;;;;0.20;0.20;;;10.60;79.20;;;;;;5045382;28;20172;-73
2023/03/01 09:44:26;;;;;;;0.10;0.10;;;10.50;78.30;;;;;;5043168;28;20188;-73
2023/03/01 09:46:51;;;;;;;0.10;0.10;;;10.50;78.60;;;;;;5042187;28;20294;-73
2023/03/01 09:49:21;;;;;;;0.25;0.25;;;10.50;79.20;;;;;;5041455;28;20247;-74
2023/03/01 09:51:57;;;;;;;0.13;0.13;;;10.60;79.20;;;;;;5041312;28;20261;-73
2023/03/01 09:54:23;;;;;;;0.10;0.10;;;10.60;78.80;;;;;;5043567;28;20198;-72
2023/03/01 09:57:13;;;;;;;0.17;0.17;;;10.70;78.90;;;;;;5043531;28;20250;-72
2023/03/01 10:00:12;;;;;;;0.10;0.10;;;10.70;78.80;;;;;;5042919;28;20235;-72
2023/03/01 10:03:02;;;;;;;0.15;0.15;;;10.70;78.80;;;;;;5039247;28;20266;-73
2023/03/01 10:05:44;;;;;;;0.20;0.20;;;10.50;78.80;;;;;;5040921;28;20207;-74
2023/03/01 10:08:30;;;;;;;0.20;0.20;;;10.50;79.20;;;;;;5042038;28;20254;-75
2023/03/01 10:10:58;;;;;;;0.20;0.20;;;10.50;79.20;;;;;;5046050;28;20245;-75
2023/03/01 10:13:42;;;;;;;0.20;0.20;;;10.60;79.00;;;;;;5046184;28;20175;-74
2023/03/01 10:16:25;;;;;;;0.10;0.10;;;10.60;79.00;;;;;;5045933;28;20195;-74
2023/03/01 10:19:03;;;;;;;0.13;0.13;;;10.60;79.00;;;;;;5038640;28;20681;-73
2023/03/01 10:21:31;;;;;;;0.20;0.20;;;10.70;79.10;;;;;;5032567;28;20561;-73
2023/03/01 10:24:10;;;;;;;0.20;0.20;;;10.70;78.90;;;;;;5032160;28;20182;-74
2023/03/01 10:26:41;;;;;;;0.30;0.30;;;10.80;78.70;;;;;;5032756;28;20274;-74
2023/03/01 10:29:12;;;;;;;0.30;0.30;;;10.80;78.40;;;;;;5032334;28;20222;-73
2023/03/01 10:31:46;;;;;;;0.20;0.20;;;10.80;78.30;;;;;;5025792;28;20214;-74
2023/03/01 10:34:26;;;;;;;0.47;0.20;;;10.90;78.40;;;;;;5026856;28;20188;-72
2023/03/01 10:36:57;;;;;;;0.17;0.17;;;11.00;77.80;;;;;;5031428;28;20182;-74
2023/03/01 10:39:25;;;;;;;0.40;0.40;;;11.00;77.80;;;;;;5026700;28;20592;-74
2023/03/01 10:42:25;;;;;;;0.25;0.25;;;11.00;77.90;;;;;;5027715;28;20192;-75
2023/03/01 10:44:50;;;;;;;0.20;0.20;;;11.20;78.00;;;;;;5013360;28;20188;-74
2023/03/01 10:47:27;;;;;;;0.35;0.20;;;11.40;77.50;;;;;;5014555;28;20278;-74
2023/03/01 10:50:02;;;;;;;0.20;0.20;;;11.60;76.90;;;;;;5016998;28;20204;-74
2023/03/01 10:52:34;;;;;;;0.25;0.25;;;11.60;75.20;;;;;;4993229;28;20188;-73
2023/03/01 10:55:27;;;;;;;0.20;0.20;;;11.40;76.90;;;;;;4997690;28;20192;-73
2023/03/01 10:58:08;;;;;;;0.20;0.20;;;11.50;77.20;;;;;;5014085;28;20648;-74
2023/03/01 11:00:52;;;;;;;0.20;0.20;;;11.70;77.00;;;;;;5009053;28;20185;-73
2023/03/01 11:03:31;;;;;;;0.25;0.25;;;12.00;76.50;;;;;;5011789;28;20192;-74
2023/03/01 11:06:05;;;;;;;0.25;0.25;;;12.00;75.50;;;;;;5015348;28;20188;-73
2023/03/01 11:08:42;;;;;;;0.20;0.20;;;11.70;74.70;;;;;;5010933;28;20259;-73
2023/03/01 11:11:31;;;;;;;0.10;0.10;;;11.30;75.90;;;;;;5012818;28;20192;-74
2023/03/01 11:14:12;;;;;;;0.30;0.30;;;11.00;76.60;;;;;;5011549;28;20181;-72
2023/03/01 11:16:41;;;;;;;0.30;0.30;;;10.90;77.40;;;;;;5011401;28;20211;-74
2023/03/01 11:19:09;;;;;;;0.30;0.30;;;10.90;77.30;;;;;;5014445;28;20500;-74
2023/03/01 11:21:55;;;;;;;0.20;0.20;;;10.70;77.40;;;;;;5018329;28;20197;-74
2023/03/01 11:24:31;;;;;;;0.10;0.10;;;10.60;78.10;;;;;;5027539;28;20251;-74
2023/03/01 11:27:02;;;;;;;0.20;0.20;;;10.60;78.30;;;;;;5028110;28;20188;-73
2023/03/01 11:29:36;;;;;;;0.38;0.38;;;10.60;78.20;;;;;;5023910;28;20179;-73
2023/03/01 11:32:06;;;;;;;0.30;0.30;;;10.30;78.60;;;;;;5029640;28;20198;-74
2023/03/01 11:34:38;;;;;;;0.20;0.20;;;10.30;79.50;;;;;;5030061;28;20203;-74
2023/03/01 11:37:13;;;;;;;0.10;0.10;;;10.00;80.00;;;;;;5029720;28;20195;-73
2023/03/01 11:39:42;;;;;;;0.30;0.30;;;10.10;79.90;;;;;;5028190;28;20266;-75
2023/03/01 11:42:34;;;;;;;0.25;0.20;;;10.10;79.70;;;;;;5029003;28;20215;-74
2023/03/01 11:45:05;;;;;;;0.20;0.20;;;10.20;79.50;;;;;;5033509;28;20283;-72
2023/03/01 11:47:46;;;;;;;0.35;0.28;;;10.10;79.20;;;;;;5023274;28;20829;-74
2023/03/01 11:50:17;;;;;;;0.20;0.20;;;10.00;80.00;;;;;;5026370;28;20188;-73
2023/03/01 11:52:52;;;;;;;0.30;0.30;;;10.10;80.10;;;;;;5027351;28;20207;-73
2023/03/01 11:55:26;;;;;;;0.15;0.15;;;10.20;79.70;;;;;;5028884;28;20187;-74
2023/03/01 11:57:58;;;;;;;0.40;0.40;;;10.20;79.50;;;;;;5026646;28;20587;-73
2023/03/01 12:00:29;;;;;;;0.20;0.20;;;10.20;79.60;;;;;;5023683;28;20183;-74
2023/03/01 12:03:14;;;;;;;0.30;0.30;;;10.20;80.00;;;;;;5030546;28;20188;-73
2023/03/01 12:06:04;;;;;;;0.30;0.30;;;10.20;80.10;;;;;;5027481;28;20188;-74
2023/03/01 12:08:48;;;;;;;0.40;0.40;;;10.20;80.30;;;;;;5024556;28;20712;-74
2023/03/01 12:11:28;;;;;;;0.82;0.30;;;10.20;80.20;;;;;;5025455;28;20192;-74
2023/03/01 12:14:31;;;;;;;0.40;0.40;;;10.30;80.40;;;;;;5030494;28;20258;-73
2023/03/01 12:17:36;;;;;;;0.20;0.20;;;10.50;79.70;;;;;;5026334;28;20185;-72
2023/03/01 12:20:27;;;;;;;0.30;0.30;;;10.70;79.70;;;;;;5022001;28;20192;-71
2023/03/01 12:23:16;;;;;;;0.57;0.57;;;11.00;79.00;;;;;;5027239;28;20183;-72
2023/03/01 12:26:10;;;;;;;0.50;0.50;;;11.30;78.10;;;;;;5026182;28;20199;-71
2023/03/01 12:28:42;;;;;;;0.60;0.60;;;11.50;77.40;;;;;;5029771;28;20264;-71
2023/03/01 12:31:13;;;;;;;0.38;0.38;;;11.40;76.20;;;;;;5030503;28;20191;-72
2023/03/01 12:33:57;;;;;;;0.47;0.47;;;11.10;77.60;;;;;;5026878;28;20198;-71
2023/03/01 12:36:53;;;;;;;0.40;0.40;;;11.10;77.70;;;;;;5026277;28;20253;-70
2023/03/01 12:39:37;;;;;;;0.70;0.52;;;10.90;77.10;;;;;;5030932;28;20184;-72
2023/03/01 12:42:27;;;;;;;0.55;0.55;;;10.60;77.70;;;;;;5031415;28;20184;-72
2023/03/01 12:45:14;;;;;;;1.02;0.47;;;10.30;78.80;;;;;;5026898;28;20208;-71
2023/03/01 12:48:00;;;;;;;1.20;0.45;;;10.10;79.40;;;;;;5023948;28;20215;-72
2023/03/01 12:50:40;;;;;;;1.50;0.63;;;9.90;80.20;;;;;;5025590;28;20195;-73
2023/03/01 12:53:13;;;;;;;0.88;0.57;;;9.80;80.50;;;;;;5027568;28;20943;-74
2023/03/01 12:55:42;;;;;;;0.75;0.73;;;9.80;81.00;;;;;;5025520;28;20180;-72
2023/03/01 12:58:17;;;;;;;0.40;0.40;;;9.90;80.60;;;;;;5029600;28;20253;-72
2023/03/01 13:01:14;;;;;;;1.02;1.02;;;9.80;80.40;;;;;;5030683;28;20587;-72
2023/03/01 13:04:04;;;;;;;0.65;0.65;;;9.90;80.60;;;;;;5028105;28;20179;-73
2023/03/01 13:06:51;;;;;;;0.65;0.50;;;10.00;80.70;;;;;;5030987;28;20667;-73
2023/03/01 13:09:27;;;;;;;0.30;0.30;;;10.10;80.30;;;;;;5030899;28;20199;-73
2023/03/01 13:11:53;;;;;;;0.40;0.40;;;10.20;80.20;;;;;;5027464;28;20583;-73
2023/03/01 13:14:24;;;;;;;0.40;0.40;;;10.20;79.60;;;;;;5023494;28;20184;-73
2023/03/01 13:16:51;;;;;;;0.57;0.57;;;10.20;79.90;;;;;;5028734;28;20517;-74
2023/03/01 13:19:26;;;;;;;0.60;0.60;;;10.30;80.10;;;;;;5032603;28;20218;-75
2023/03/01 13:21:54;;;;;;;0.50;0.50;;;10.50;79.90;;;;;;5025513;28;20279;-76
2023/03/01 13:24:43;;;;;;;0.40;0.40;;;10.60;79.10;;;;;;5023828;28;20299;-77